createdAt,value
2018-11-06T00:01:57.859Z,46.00
2018-11-06T00:04:31.454Z,45.91
2018-11-06T00:07:00.506Z,45.50
2018-11-06T00:09:28.899Z,45.36
2018-11-06T00:11:57.239Z,45.20
2018-11-06T00:14:26.038Z,45.33
2018-11-06T00:16:54.354Z,45.21
2018-11-06T00:19:22.667Z,45.28
2018-11-06T00:21:50.939Z,44.96
2018-11-06T00:24:19.283Z,45.29
2018-11-06T00:26:47.987Z,44.81
2018-11-06T00:29:16.520Z,44.72
2018-11-06T00:31:44.825Z,44.93
2018-11-06T00:34:13.461Z,45.00
2018-11-06T00:36:41.784Z,45.10
2018-11-06T00:39:10.579Z,44.91
2018-11-06T00:41:39.273Z,44.85
2018-11-06T00:44:07.924Z,45.16
2018-11-06T00:46:36.842Z,45.10
2018-11-06T00:49:05.629Z,45.16
2018-11-06T00:51:34.000Z,45.25
2018-11-06T00:54:02.406Z,45.13
2018-11-06T00:56:30.770Z,45.05
2018-11-06T00:58:59.044Z,45.06
2018-11-06T01:01:27.422Z,45.00
2018-11-06T01:04:14.398Z,45.26
2018-11-06T01:06:43.098Z,45.56
2018-11-06T01:09:13.163Z,45.29
2018-11-06T01:11:42.607Z,45.65
2018-11-06T01:14:10.914Z,45.54
2018-11-06T01:16:39.846Z,46.27
2018-11-06T01:19:09.146Z,46.41
2018-11-06T01:21:37.942Z,47.04
2018-11-06T01:24:07.372Z,46.94
2018-11-06T01:26:35.725Z,47.59
2018-11-06T01:29:04.239Z,47.97
2018-11-06T01:31:32.524Z,47.41
2018-11-06T01:34:00.961Z,46.40
2018-11-06T01:36:29.417Z,46.35
2018-11-06T01:38:57.773Z,46.35
2018-11-06T01:41:27.337Z,46.16
2018-11-06T01:43:55.831Z,45.79
2018-11-06T01:46:24.139Z,45.76
2018-11-06T01:48:52.579Z,45.63
2018-11-06T01:51:21.032Z,45.48
2018-11-06T01:53:49.317Z,45.94
2018-11-06T01:56:18.197Z,45.99
2018-11-06T01:58:47.835Z,45.85
2018-11-06T02:01:16.158Z,45.34
2018-11-06T02:03:44.557Z,45.30
2018-11-06T02:06:12.903Z,45.25
2018-11-06T02:08:41.161Z,45.31
2018-11-06T02:11:09.545Z,45.56
2018-11-06T02:13:37.834Z,45.66
2018-11-06T02:16:06.645Z,45.84
2018-11-06T02:18:35.039Z,46.10
2018-11-06T02:21:03.386Z,46.01
2018-11-06T02:23:31.848Z,46.07
2018-11-06T02:26:00.118Z,46.18
2018-11-06T02:28:28.518Z,45.78
2018-11-06T02:30:56.894Z,45.81
2018-11-06T02:33:25.494Z,45.54
2018-11-06T02:35:54.578Z,45.42
2018-11-06T02:38:22.959Z,45.65
2018-11-06T02:40:51.409Z,45.83
2018-11-06T02:43:19.823Z,45.95
2018-11-06T02:45:48.621Z,45.70
2018-11-06T02:48:16.979Z,46.10
2018-11-06T02:50:45.276Z,46.09
2018-11-06T02:53:13.613Z,45.83
2018-11-06T02:55:42.045Z,46.00
2018-11-06T02:58:10.395Z,46.00
2018-11-06T03:00:38.761Z,46.26
2018-11-06T03:03:07.318Z,46.16
2018-11-06T03:05:35.749Z,46.26
2018-11-06T03:08:04.125Z,46.19
2018-11-06T03:10:32.649Z,46.43
2018-11-06T03:13:01.027Z,46.16
2018-11-06T03:15:29.339Z,45.97
2018-11-06T03:17:59.058Z,46.09
2018-11-06T03:20:27.441Z,46.16
2018-11-06T03:22:55.882Z,46.56
2018-11-06T03:25:24.512Z,46.60
2018-11-06T03:27:53.097Z,46.28
2018-11-06T03:30:21.474Z,46.18
2018-11-06T03:32:50.569Z,46.53
2018-11-06T03:35:18.923Z,46.47
2018-11-06T03:37:47.326Z,46.34
2018-11-06T03:40:15.716Z,46.56
2018-11-06T03:42:44.490Z,46.50
2018-11-06T03:45:13.746Z,46.88
2018-11-06T03:47:42.282Z,47.24
2018-11-06T03:50:12.265Z,47.43
2018-11-06T03:52:40.662Z,47.81
2018-11-06T03:55:09.594Z,47.74
2018-11-06T03:57:37.883Z,47.99
2018-11-06T04:00:08.903Z,48.16
2018-11-06T04:02:37.257Z,48.46
2018-11-06T04:05:06.409Z,48.26
2018-11-06T04:07:34.918Z,48.03
2018-11-06T04:10:03.750Z,47.44
2018-11-06T04:12:32.099Z,47.85
2018-11-06T04:15:00.448Z,47.56
2018-11-06T04:17:28.798Z,47.73
2018-11-06T04:19:57.135Z,47.58
2018-11-06T04:22:25.503Z,47.57
2018-11-06T04:24:54.149Z,47.91
2018-11-06T04:27:22.428Z,48.06
2018-11-06T04:29:50.737Z,48.24
2018-11-06T04:32:19.178Z,48.26
2018-11-06T04:34:47.467Z,48.83
2018-11-06T04:37:15.867Z,49.18
2018-11-06T04:39:44.395Z,49.41
2018-11-06T04:42:12.840Z,49.62
2018-11-06T04:44:41.213Z,49.90
2018-11-06T04:47:09.797Z,49.53
2018-11-06T04:49:38.096Z,50.02
2018-11-06T04:52:06.443Z,49.96
2018-11-06T04:54:34.770Z,49.79
2018-11-06T04:57:03.674Z,50.03
2018-11-06T04:59:32.124Z,50.35
2018-11-06T05:02:00.653Z,50.51
2018-11-06T05:04:28.838Z,49.77
2018-11-06T05:06:57.268Z,48.95
2018-11-06T05:09:25.522Z,48.79
2018-11-06T05:11:53.958Z,48.40
2018-11-06T05:14:22.322Z,48.18
2018-11-06T05:16:50.674Z,48.03
2018-11-06T05:19:19.854Z,48.09
2018-11-06T05:21:48.142Z,47.56
2018-11-06T05:24:16.484Z,47.58
2018-11-06T05:26:45.374Z,47.36
2018-11-06T05:29:13.659Z,47.36
2018-11-06T05:31:42.162Z,47.19
2018-11-06T05:34:11.135Z,47.12
2018-11-06T05:36:39.922Z,46.78
2018-11-06T05:39:10.276Z,47.06
2018-11-06T05:41:38.526Z,47.31
2018-11-06T05:44:06.870Z,47.15
2018-11-06T05:46:35.194Z,47.34
2018-11-06T05:49:03.486Z,46.90
2018-11-06T05:51:31.826Z,47.43
2018-11-06T05:54:00.238Z,47.54
2018-11-06T05:56:29.404Z,47.13
2018-11-06T05:58:57.778Z,47.79
2018-11-06T06:01:26.082Z,48.29
2018-11-06T06:03:54.855Z,49.13
2018-11-06T06:06:23.122Z,49.48
2018-11-06T06:08:51.821Z,50.06
2018-11-06T06:11:20.203Z,50.52
2018-11-06T06:13:48.482Z,50.86
2018-11-06T06:16:16.807Z,51.32
2018-11-06T06:18:45.199Z,51.38
2018-11-06T06:21:13.598Z,51.57
2018-11-06T06:23:42.001Z,51.92
2018-11-06T06:26:10.282Z,52.13
2018-11-06T06:28:38.680Z,52.38
2018-11-06T06:31:06.931Z,52.71
2018-11-06T06:33:35.278Z,53.16
2018-11-06T06:36:03.566Z,53.08
2018-11-06T06:38:31.997Z,53.18
2018-11-06T06:41:00.401Z,53.57
2018-11-06T06:43:28.704Z,54.12
2018-11-06T06:45:57.732Z,53.73
2018-11-06T06:48:26.021Z,53.69
2018-11-06T06:50:54.342Z,53.74
2018-11-06T06:53:22.798Z,53.76
2018-11-06T06:55:51.098Z,53.97
2018-11-06T06:58:19.849Z,54.38
2018-11-06T07:00:48.703Z,54.52
2018-11-06T07:03:16.982Z,54.57
2018-11-06T07:05:45.263Z,54.74
2018-11-06T07:08:14.432Z,54.65
2018-11-06T07:10:42.742Z,54.35
2018-11-06T07:13:11.108Z,54.26
2018-11-06T07:15:39.901Z,54.42
2018-11-06T07:18:08.262Z,54.37
2018-11-06T07:20:36.538Z,54.31
2018-11-06T07:23:05.425Z,54.16
2018-11-06T07:25:33.898Z,54.48
2018-11-06T07:28:02.583Z,54.37
2018-11-06T07:30:30.990Z,54.46
2018-11-06T07:32:59.286Z,54.16
2018-11-06T07:35:27.693Z,54.24
2018-11-06T07:37:56.202Z,54.11
2018-11-06T07:40:24.597Z,54.18
2018-11-06T07:42:52.952Z,54.35
2018-11-06T07:45:22.422Z,54.66
2018-11-06T07:47:50.834Z,54.66
2018-11-06T07:50:19.302Z,54.52
2018-11-06T07:52:47.610Z,54.57
2018-11-06T07:55:17.948Z,54.89
2018-11-06T07:57:46.372Z,54.97
2018-11-06T08:00:19.236Z,55.25
2018-11-06T08:02:48.358Z,55.63
2018-11-06T08:05:17.162Z,55.46
2018-11-06T08:07:46.678Z,55.48
2018-11-06T08:10:15.042Z,55.74
2018-11-06T08:12:45.806Z,55.79
2018-11-06T08:15:14.381Z,55.64
2018-11-06T08:17:43.525Z,55.70
2018-11-06T08:20:11.865Z,55.50
2018-11-06T08:22:40.747Z,55.06
2018-11-06T08:25:10.630Z,54.95
2018-11-06T08:27:39.884Z,54.67
2018-11-06T08:30:08.790Z,54.82
2018-11-06T08:32:37.464Z,55.15
2018-11-06T08:35:07.355Z,55.04
2018-11-06T08:37:36.170Z,54.85
2018-11-06T08:40:05.039Z,54.82
2018-11-06T08:42:33.453Z,54.88
2018-11-06T08:45:01.980Z,54.39
2018-11-06T08:47:30.343Z,53.08
2018-11-06T08:49:58.621Z,51.64
2018-11-06T08:52:27.239Z,50.10
2018-11-06T08:54:55.594Z,49.37
2018-11-06T08:57:23.958Z,48.40
2018-11-06T08:59:52.794Z,47.61
2018-11-06T09:02:21.087Z,47.41
2018-11-06T09:04:49.421Z,47.34
2018-11-06T09:07:17.985Z,47.07
2018-11-06T09:09:46.727Z,46.29
2018-11-06T09:12:15.061Z,46.29
2018-11-06T09:14:43.460Z,45.99
2018-11-06T09:17:11.825Z,45.54
2018-11-06T09:19:40.085Z,45.37
2018-11-06T09:22:08.491Z,45.34
2018-11-06T09:24:36.752Z,45.11
2018-11-06T09:27:05.137Z,44.92
2018-11-06T09:29:33.523Z,44.68
2018-11-06T09:32:01.874Z,44.74
2018-11-06T09:34:30.287Z,44.36
2018-11-06T09:36:58.593Z,44.02
2018-11-06T09:39:27.006Z,43.80
2018-11-06T09:41:55.345Z,44.29
2018-11-06T09:44:23.672Z,44.10
2018-11-06T09:46:52.035Z,43.93
2018-11-06T09:49:20.305Z,43.18
2018-11-06T09:51:48.958Z,42.91
2018-11-06T09:54:18.091Z,42.81
2018-11-06T09:56:46.888Z,43.34
2018-11-06T09:59:15.290Z,43.03
2018-11-06T10:01:43.614Z,42.83
2018-11-06T10:04:12.451Z,42.24
2018-11-06T10:06:40.955Z,42.14
2018-11-06T10:09:10.261Z,42.42
2018-11-06T10:11:38.900Z,42.63
2018-11-06T10:14:07.395Z,42.67
2018-11-06T10:16:35.752Z,42.96
2018-11-06T10:19:04.137Z,42.33
2018-11-06T10:21:32.694Z,42.23
2018-11-06T10:24:01.037Z,41.90
2018-11-06T10:26:29.309Z,42.08
2018-11-06T10:28:57.656Z,41.74
2018-11-06T10:31:26.698Z,42.24
2018-11-06T10:33:55.203Z,41.92
2018-11-06T10:36:23.498Z,41.84
2018-11-06T10:38:51.859Z,41.55
2018-11-06T10:41:20.238Z,41.59
2018-11-06T10:43:48.548Z,41.40
2018-11-06T10:46:17.406Z,41.49
2018-11-06T10:48:45.781Z,41.70
2018-11-06T10:51:14.122Z,41.15
2018-11-06T10:53:42.562Z,41.08
2018-11-06T10:56:11.142Z,40.93
2018-11-06T10:58:39.719Z,41.04
2018-11-06T11:01:13.266Z,41.03
2018-11-06T11:03:45.769Z,40.64
2018-11-06T11:06:14.158Z,40.11
2018-11-06T11:08:42.544Z,39.86
2018-11-06T11:11:10.862Z,39.94
2018-11-06T11:13:39.185Z,40.39
2018-11-06T11:16:08.177Z,40.29
2018-11-06T11:18:36.556Z,41.08
2018-11-06T11:21:05.365Z,40.80
2018-11-06T11:23:33.660Z,41.07
2018-11-06T11:26:02.485Z,40.97
2018-11-06T11:28:30.786Z,40.66
2018-11-06T11:30:59.203Z,40.36
2018-11-06T11:33:27.658Z,40.01
2018-11-06T11:35:56.026Z,39.81
2018-11-06T11:38:24.459Z,39.67
2018-11-06T11:40:52.786Z,39.56
2018-11-06T11:43:21.541Z,40.30
2018-11-06T11:45:49.898Z,40.22
2018-11-06T11:48:18.621Z,40.05
2018-11-06T11:50:46.918Z,40.03
2018-11-06T11:53:15.297Z,39.02
2018-11-06T11:55:43.793Z,38.78
2018-11-06T11:58:23.830Z,38.41
2018-11-06T12:00:52.253Z,37.88
2018-11-06T12:03:20.581Z,37.56
2018-11-06T12:05:48.849Z,37.07
2018-11-06T12:08:17.163Z,37.26
2018-11-06T12:10:45.445Z,36.63
2018-11-06T12:13:13.786Z,36.77
2018-11-06T12:15:43.113Z,36.98
2018-11-06T12:18:11.503Z,36.44
2018-11-06T12:20:39.826Z,36.22
2018-11-06T12:23:08.246Z,35.90
2018-11-06T12:25:36.661Z,36.48
2018-11-06T12:28:05.094Z,36.66
2018-11-06T12:30:33.398Z,36.80
2018-11-06T12:33:01.730Z,36.74
2018-11-06T12:35:30.149Z,36.62
2018-11-06T12:37:58.522Z,36.41
2018-11-06T12:40:26.878Z,36.42
2018-11-06T12:42:55.200Z,35.95
2018-11-06T12:45:23.556Z,35.56
2018-11-06T12:47:52.517Z,35.21
2018-11-06T12:50:20.856Z,35.58
2018-11-06T12:52:49.201Z,35.54
2018-11-06T12:55:17.605Z,34.44
2018-11-06T12:57:45.925Z,34.63
2018-11-06T13:00:17.694Z,33.85
2018-11-06T13:02:46.473Z,33.86
2018-11-06T13:05:14.853Z,33.31
2018-11-06T13:07:43.910Z,32.50
2018-11-06T13:10:13.120Z,32.02
2018-11-06T13:12:42.221Z,32.58
2018-11-06T13:15:10.557Z,32.38
2018-11-06T13:17:38.897Z,32.61
2018-11-06T13:20:10.573Z,31.95
2018-11-06T13:22:39.917Z,31.92
2018-11-06T13:25:08.218Z,31.32
2018-11-06T13:27:37.203Z,31.95
2018-11-06T13:30:07.385Z,31.37
2018-11-06T13:32:35.730Z,32.27
2018-11-06T13:35:04.134Z,31.92
2018-11-06T13:37:32.597Z,31.63
2018-11-06T13:40:01.585Z,31.71
2018-11-06T13:42:30.041Z,32.19
2018-11-06T13:44:58.558Z,32.12
2018-11-06T13:47:26.741Z,32.60
2018-11-06T13:49:55.023Z,32.00
2018-11-06T13:52:23.487Z,32.25
2018-11-06T13:54:51.773Z,32.83
2018-11-06T13:57:20.245Z,33.20
2018-11-06T13:59:48.562Z,33.66
2018-11-06T14:02:16.894Z,33.19
2018-11-06T14:04:45.219Z,33.29
2018-11-06T14:07:14.014Z,32.55
2018-11-06T14:09:42.282Z,31.88
2018-11-06T14:12:10.738Z,32.05
2018-11-06T14:14:39.049Z,31.31
2018-11-06T14:17:07.533Z,31.93
2018-11-06T14:19:35.809Z,31.74
2018-11-06T14:22:04.147Z,31.86
2018-11-06T14:24:32.507Z,32.31
2018-11-06T14:27:01.001Z,31.90
2018-11-06T14:29:29.395Z,32.45
2018-11-06T14:31:57.732Z,32.30
2018-11-06T14:34:26.113Z,32.83
2018-11-06T14:36:54.619Z,33.60
2018-11-06T14:39:22.902Z,33.97
2018-11-06T14:41:51.241Z,34.25
2018-11-06T14:44:20.021Z,34.83
2018-11-06T14:46:48.423Z,35.27
2018-11-06T14:49:16.735Z,35.47
2018-11-06T14:51:45.261Z,35.40
2018-11-06T14:54:13.641Z,36.00
2018-11-06T14:56:42.642Z,35.98
2018-11-06T14:59:10.938Z,35.58
2018-11-06T15:01:39.297Z,35.75
2018-11-06T15:04:07.672Z,35.42
2018-11-06T15:06:36.101Z,36.15
2018-11-06T15:09:06.177Z,36.26
2018-11-06T15:11:35.795Z,36.41
2018-11-06T15:14:04.254Z,36.18
2018-11-06T15:16:32.914Z,36.47
2018-11-06T15:19:01.219Z,36.48
2018-11-06T15:21:29.616Z,36.14
2018-11-06T15:23:57.966Z,36.34
2018-11-06T15:26:26.302Z,36.60
2018-11-06T15:28:54.674Z,36.33
2018-11-06T15:31:23.018Z,36.31
2018-11-06T15:33:51.381Z,36.66
2018-11-06T15:36:19.883Z,36.49
2018-11-06T15:38:48.238Z,36.62
2018-11-06T15:41:16.756Z,37.24
2018-11-06T15:43:45.108Z,37.41
2018-11-06T15:46:13.483Z,37.46
2018-11-06T15:48:42.201Z,37.89
2018-11-06T15:51:10.473Z,38.31
2018-11-06T15:53:38.821Z,38.68
2018-11-06T15:56:07.427Z,39.11
2018-11-06T15:58:35.837Z,38.84
2018-11-06T16:01:04.216Z,39.30
2018-11-06T16:03:32.610Z,39.15
2018-11-06T16:06:01.502Z,39.59
2018-11-06T16:08:30.444Z,39.73
2018-11-06T16:10:58.813Z,39.86
2018-11-06T16:13:27.396Z,40.30
2018-11-06T16:15:55.875Z,39.88
2018-11-06T16:18:24.142Z,39.77
2018-11-06T16:20:53.063Z,39.91
2018-11-06T16:23:21.437Z,40.07
2018-11-06T16:25:49.966Z,40.54
2018-11-06T16:28:18.915Z,40.11
2018-11-06T16:30:47.629Z,40.21
2018-11-06T16:33:16.067Z,40.41
2018-11-06T16:35:44.361Z,40.78
2018-11-06T16:38:12.706Z,41.08
2018-11-06T16:40:41.174Z,41.46
2018-11-06T16:43:09.540Z,41.93
2018-11-06T16:45:37.970Z,41.78
2018-11-06T16:48:06.381Z,42.12
2018-11-06T16:50:34.708Z,42.72
2018-11-06T16:53:02.988Z,42.68
2018-11-06T16:55:31.759Z,42.70
2018-11-06T16:58:00.537Z,42.76
2018-11-06T17:00:29.166Z,42.60
2018-11-06T17:02:57.445Z,42.25
2018-11-06T17:05:25.825Z,42.04
2018-11-06T17:07:54.202Z,42.17
2018-11-06T17:10:22.598Z,42.41
2018-11-06T17:12:50.901Z,42.65
2018-11-06T17:15:23.065Z,43.07
2018-11-06T17:17:52.563Z,42.82
2018-11-06T17:20:21.473Z,42.82
2018-11-06T17:22:50.118Z,42.64
2018-11-06T17:25:19.737Z,42.41
2018-11-06T17:27:48.265Z,42.37
2018-11-06T17:30:17.645Z,42.84
2018-11-06T17:32:46.396Z,43.17
2018-11-06T17:35:16.129Z,43.45
2018-11-06T17:37:44.617Z,43.29
2018-11-06T17:40:19.378Z,43.33
2018-11-06T17:42:47.933Z,43.26
2018-11-06T17:45:19.820Z,43.42
2018-11-06T17:47:48.302Z,43.77
2018-11-06T17:50:16.970Z,43.69
2018-11-06T17:52:45.425Z,43.36
2018-11-06T17:55:15.611Z,43.09
2018-11-06T17:57:43.765Z,43.62
2018-11-06T18:00:14.547Z,43.35
2018-11-06T18:02:44.615Z,43.28
2018-11-06T18:05:13.930Z,43.47
2018-11-06T18:07:42.970Z,43.47
2018-11-06T18:10:13.265Z,43.72
2018-11-06T18:12:41.595Z,43.46
2018-11-06T18:15:09.975Z,43.30
2018-11-06T18:17:38.991Z,44.01
2018-11-06T18:20:08.214Z,44.16
2018-11-06T18:22:36.539Z,43.87
2018-11-06T18:25:05.330Z,43.90
2018-11-06T18:27:33.617Z,44.26
2018-11-06T18:30:02.811Z,43.72
2018-11-06T18:32:31.264Z,43.76
2018-11-06T18:34:59.583Z,43.16
2018-11-06T18:37:27.868Z,43.42
2018-11-06T18:39:57.114Z,43.02
2018-11-06T18:42:25.407Z,43.00
2018-11-06T18:44:53.810Z,42.61
2018-11-06T18:47:22.231Z,42.66
2018-11-06T18:49:50.580Z,42.72
2018-11-06T18:52:18.783Z,42.46
2018-11-06T18:54:47.129Z,42.35
2018-11-06T18:57:15.493Z,42.77
2018-11-06T18:59:44.393Z,42.90
2018-11-06T19:02:13.014Z,43.29
2018-11-06T19:04:41.307Z,43.23
2018-11-06T19:07:09.598Z,43.55
2018-11-06T19:09:38.421Z,43.78
2018-11-06T19:12:06.793Z,43.93
2018-11-06T19:14:35.158Z,44.64
2018-11-06T19:17:03.595Z,44.59
2018-11-06T19:19:31.875Z,45.33
2018-11-06T19:22:00.188Z,45.97
2018-11-06T19:24:28.589Z,46.15
2018-11-06T19:26:56.947Z,46.60
2018-11-06T19:29:25.320Z,47.07
2018-11-06T19:31:53.722Z,47.12
2018-11-06T19:34:22.183Z,47.90
2018-11-06T19:36:50.686Z,47.99
2018-11-06T19:39:19.018Z,48.31
2018-11-06T19:41:47.476Z,48.67
2018-11-06T19:44:15.798Z,48.84
2018-11-06T19:46:44.198Z,48.87
2018-11-06T19:49:12.550Z,48.50
2018-11-06T19:51:41.121Z,48.55
2018-11-06T19:54:09.890Z,48.59
2018-11-06T19:56:38.137Z,48.59
2018-11-06T19:59:06.380Z,48.90
2018-11-06T20:01:34.796Z,49.40
2018-11-06T20:04:03.930Z,49.44
2018-11-06T20:06:32.221Z,49.75
2018-11-06T20:09:00.827Z,49.78
2018-11-06T20:11:29.234Z,50.11
2018-11-06T20:13:57.506Z,50.09
2018-11-06T20:16:26.714Z,50.20
2018-11-06T20:18:54.986Z,50.44
2018-11-06T20:21:23.451Z,50.45
2018-11-06T20:23:52.332Z,50.39
2018-11-06T20:26:20.610Z,50.54
2018-11-06T20:28:49.378Z,50.23
2018-11-06T20:31:18.603Z,50.34
2018-11-06T20:33:46.988Z,50.61
2018-11-06T20:36:15.248Z,50.62
2018-11-06T20:38:43.746Z,50.55
2018-11-06T20:41:12.266Z,50.68
2018-11-06T20:43:41.394Z,50.31
2018-11-06T20:46:10.522Z,50.38
2018-11-06T20:48:38.957Z,50.14
2018-11-06T20:51:07.351Z,50.30
2018-11-06T20:53:35.853Z,50.61
2018-11-06T20:56:04.550Z,50.36
2018-11-06T20:58:32.903Z,50.33
2018-11-06T21:01:01.351Z,50.38
2018-11-06T21:03:29.646Z,50.13
2018-11-06T21:05:58.140Z,50.23
2018-11-06T21:08:26.355Z,50.01
2018-11-06T21:10:54.665Z,50.29
2018-11-06T21:13:23.164Z,50.39
2018-11-06T21:15:51.333Z,50.35
2018-11-06T21:18:19.741Z,50.57
2018-11-06T21:20:48.083Z,50.92
2018-11-06T21:23:16.498Z,50.51
2018-11-06T21:25:44.973Z,50.89
2018-11-06T21:28:13.065Z,51.29
2018-11-06T21:30:41.414Z,51.21
2018-11-06T21:33:11.196Z,50.83
2018-11-06T21:35:39.701Z,50.48
2018-11-06T21:38:08.138Z,50.89
2018-11-06T21:40:36.413Z,50.33
2018-11-06T21:43:04.842Z,50.52
2018-11-06T21:45:33.163Z,50.18
2018-11-06T21:48:01.486Z,49.81
2018-11-06T21:50:30.702Z,49.18
2018-11-06T21:52:59.016Z,49.58
2018-11-06T21:55:27.343Z,49.37
2018-11-06T21:57:55.706Z,49.20
2018-11-06T22:00:24.102Z,49.11
2018-11-06T22:02:52.367Z,49.37
2018-11-06T22:05:21.389Z,49.66
2018-11-06T22:07:49.946Z,49.98
2018-11-06T22:10:19.625Z,50.21
2018-11-06T22:12:48.410Z,50.12
2018-11-06T22:15:17.782Z,50.08
2018-11-06T22:17:46.304Z,50.03
2018-11-06T22:20:16.115Z,49.78
2018-11-06T22:22:45.137Z,50.04
2018-11-06T22:25:13.613Z,49.94
2018-11-06T22:27:42.163Z,49.60
2018-11-06T22:30:11.957Z,50.21
2018-11-06T22:32:40.817Z,50.14
2018-11-06T22:35:10.843Z,50.06
2018-11-06T22:37:39.281Z,50.19
2018-11-06T22:40:08.409Z,49.97
2018-11-06T22:42:36.942Z,50.01
2018-11-06T22:45:06.718Z,50.63
2018-11-06T22:47:35.897Z,50.12
2018-11-06T22:50:04.601Z,50.38
2018-11-06T22:52:32.962Z,50.76
2018-11-06T22:55:01.305Z,50.39
2018-11-06T22:57:29.683Z,50.71
2018-11-06T22:59:58.101Z,50.61
2018-11-06T23:02:26.406Z,50.81
2018-11-06T23:04:54.672Z,51.14
2018-11-06T23:07:28.342Z,51.02
2018-11-06T23:09:56.726Z,50.91
2018-11-06T23:12:25.185Z,51.32
2018-11-06T23:14:53.517Z,51.22
2018-11-06T23:17:21.838Z,51.71
2018-11-06T23:19:50.195Z,51.67
2018-11-06T23:22:18.520Z,52.24
2018-11-06T23:24:46.924Z,52.28
2018-11-06T23:27:15.261Z,52.58
2018-11-06T23:29:43.669Z,52.95
2018-11-06T23:32:12.009Z,53.23
2018-11-06T23:34:40.285Z,53.52
2018-11-06T23:37:08.695Z,53.43
2018-11-06T23:39:37.131Z,53.93
2018-11-06T23:42:05.831Z,54.05
2018-11-06T23:44:34.226Z,54.43
2018-11-06T23:47:02.702Z,54.29
2018-11-06T23:49:31.105Z,54.48
2018-11-06T23:51:59.469Z,54.93
2018-11-06T23:54:28.221Z,55.29
2018-11-06T23:56:57.105Z,55.40
2018-11-06T23:59:25.527Z,55.75
